Time;durP1;ratioP1;P1;durP2;ratioP2;P2;SDS_P1;SDS_P2;PMS_P1;PMS_P2;Temp;Humidity;BMP_temperature;BMP_pressure;BME280_temperature;BME280_humidity;BME280_pressure;Samples;Min_cycle;Max_cycle;Signal;HPM_P1;HPM_P2
2022/11/28 00:00:36;;;;;;;;;;;;;;;30.54;23.07;101651.84;4959780;28;1126;-20
2022/11/28 00:03:01;;;;;;;;;;;;;;;30.08;23.54;101650.84;4977228;28;1195;-20
2022/11/28 00:05:26;;;;;;;;;;;;;;;30.17;23.80;101651.63;4976343;28;1253;-21
2022/11/28 00:07:52;;;;;;;;;;;;;;;30.29;23.73;101652.09;4974653;28;1106;-20
2022/11/28 00:10:17;;;;;;;;;;;;;;;30.38;23.59;101650.97;4976753;28;961;-20
2022/11/28 00:12:42;;;;;;;;;;;;;;;30.40;23.49;101646.22;4976621;28;1133;-20
2022/11/28 00:15:09;;;;;;;;;;;;;;;30.61;23.41;101641.97;4976689;28;1894;-20
2022/11/28 00:17:34;;;;;;;;;;;;;;;30.05;24.03;101643.09;4959112;28;1126;-20
2022/11/28 00:19:59;;;;;;;;;;;;;;;29.92;24.27;101639.13;4977049;28;1111;-20
2022/11/28 00:22:26;;;;;;;;;;;;;;;30.28;23.68;101626.81;4971708;28;1924;-20
2022/11/28 00:24:52;;;;;;;;;;;;;;;30.49;23.53;101638.84;4976115;28;1224;-20
2022/11/28 00:27:17;;;;;;;;;;;;;;;30.10;23.48;101632.53;4975838;28;1094;-20
2022/11/28 00:29:42;;;;;;;;;;;;;;;30.20;23.63;101626.88;4977112;28;1197;-20
2022/11/28 00:32:07;;;;;;;;;;;;;;;30.38;23.59;101614.88;4976804;28;1102;-20
2022/11/28 00:34:33;;;;;;;;;;;;;;;30.56;23.32;101625.38;4975682;28;1957;-20
2022/11/28 00:36:58;;;;;;;;;;;;;;;30.59;23.10;101619.56;4976276;28;1128;-20
2022/11/28 00:39:23;;;;;;;;;;;;;;;30.60;23.07;101618.53;4976526;28;1082;-20
2022/11/28 00:41:49;;;;;;;;;;;;;;;29.90;23.98;101621.31;4976474;28;1105;-20
2022/11/28 00:44:14;;;;;;;;;;;;;;;30.02;23.92;101619.03;4976243;28;1102;-19
2022/11/28 00:46:39;;;;;;;;;;;;;;;30.15;23.75;101623.84;4976027;28;1008;-20
2022/11/28 00:49:05;;;;;;;;;;;;;;;30.30;23.55;101619.34;4976036;28;1189;-20
2022/11/28 00:51:30;;;;;;;;;;;;;;;30.34;23.00;101616.25;4976433;28;1185;-20
2022/11/28 00:53:56;;;;;;;;;;;;;;;29.69;24.05;101607.41;4966832;28;2145;-20
2022/11/28 00:56:23;;;;;;;;;;;;;;;30.21;23.68;101603.31;4975838;28;1200;-20
2022/11/28 00:58:48;;;;;;;;;;;;;;;30.43;23.39;101602.41;4975490;28;873;-19
2022/11/28 01:01:13;;;;;;;;;;;;;;;30.54;23.24;101605.69;4976821;28;1102;-20
2022/11/28 01:03:39;;;;;;;;;;;;;;;30.27;23.40;101608.00;4975808;28;1225;-20
2022/11/28 01:06:05;;;;;;;;;;;;;;;29.93;24.00;101601.97;4977042;28;1184;-19
2022/11/28 01:08:30;;;;;;;;;;;;;;;30.29;23.58;101592.38;4966050;28;1122;-20
2022/11/28 01:10:55;;;;;;;;;;;;;;;30.47;23.36;101591.19;4979347;28;1102;-20
2022/11/28 01:13:20;;;;;;;;;;;;;;;30.58;22.79;101592.59;4979372;28;1129;-20
2022/11/28 01:15:46;;;;;;;;;;;;;;;29.78;24.08;101585.66;4962368;28;1963;-20
2022/11/28 01:18:11;;;;;;;;;;;;;;;30.18;23.77;101599.03;4979424;28;1133;-20
2022/11/28 01:20:36;;;;;;;;;;;;;;;30.27;23.69;101589.00;4979515;28;1142;-20
2022/11/28 01:23:02;;;;;;;;;;;;;;;30.57;22.82;101575.47;4973547;28;1824;-20
2022/11/28 01:25:28;;;;;;;;;;;;;;;30.42;22.68;101573.59;4961934;28;1848;-20
2022/11/28 01:27:53;;;;;;;;;;;;;;;29.96;23.48;101582.63;4979740;28;1071;-20
2022/11/28 01:30:19;;;;;;;;;;;;;;;30.21;23.66;101570.75;4979282;28;1110;-19
2022/11/28 01:32:44;;;;;;;;;;;;;;;30.39;23.27;101583.97;4979456;28;1157;-20
2022/11/28 01:35:10;;;;;;;;;;;;;;;30.45;23.39;101564.22;4978751;28;1910;-20
2022/11/28 01:37:35;;;;;;;;;;;;;;;30.51;23.10;101563.47;4979291;28;1149;-20
2022/11/28 01:40:00;;;;;;;;;;;;;;;29.90;23.94;101562.50;4978582;28;1110;-20
2022/11/28 01:42:25;;;;;;;;;;;;;;;30.11;23.74;101551.97;4979338;28;1150;-20
2022/11/28 01:44:51;;;;;;;;;;;;;;;30.22;23.75;101546.13;4979280;28;1130;-20
2022/11/28 01:47:17;;;;;;;;;;;;;;;30.57;23.37;101542.03;4978915;28;930;-20
2022/11/28 01:49:42;;;;;;;;;;;;;;;30.43;23.01;101533.69;4961618;28;1209;-20
2022/11/28 01:52:09;;;;;;;;;;;;;;;30.13;23.36;101537.19;4974153;28;1892;-20
2022/11/28 01:54:34;;;;;;;;;;;;;;;30.39;23.64;101525.09;4973838;28;1898;-20
2022/11/28 01:57:00;;;;;;;;;;;;;;;30.53;23.26;101523.41;4945306;28;1165;-20
2022/11/28 01:59:26;;;;;;;;;;;;;;;30.50;23.33;101518.34;4978795;28;867;-19
2022/11/28 02:01:51;;;;;;;;;;;;;;;30.53;23.43;101514.44;4961300;28;1126;-20
2022/11/28 02:04:17;;;;;;;;;;;;;;;30.60;22.82;101517.22;4978733;28;1090;-20
2022/11/28 02:06:42;;;;;;;;;;;;;;;29.61;24.72;101518.00;4961347;28;1134;-20
2022/11/28 02:09:12;;;;;;;;;;;;;;;30.12;23.96;101516.53;4965067;28;1272;-20
2022/11/28 02:11:40;;;;;;;;;;;;;;;30.34;23.73;101518.53;4978574;28;971;-20
2022/11/28 02:14:23;;;;;;;;;;;;;;;30.60;23.14;101514.50;4961461;28;1894;-20
2022/11/28 02:17:07;;;;;;;;;;;;;;;30.14;23.25;101510.91;4978794;28;1168;-20
2022/11/28 02:19:38;;;;;;;;;;;;;;;30.37;23.69;101510.88;4966639;28;1146;-20
2022/11/28 02:22:04;;;;;;;;;;;;;;;30.65;23.23;101515.63;4956813;29;2003;-19
2022/11/28 02:24:29;;;;;;;;;;;;;;;30.75;23.24;101517.19;4977910;28;1154;-20
2022/11/28 02:26:59;;;;;;;;;;;;;;;30.74;23.10;101510.09;4978059;28;1165;-20
2022/11/28 02:29:28;;;;;;;;;;;;;;;30.33;23.56;101514.16;4960949;28;1118;-20
2022/11/28 02:32:17;;;;;;;;;;;;;;;29.59;24.59;101511.91;4960985;28;1110;-20
2022/11/28 02:34:44;;;;;;;;;;;;;;;30.29;23.86;101498.25;4967410;28;1910;-20
2022/11/28 02:37:33;;;;;;;;;;;;;;;30.45;23.70;101501.78;4978370;28;1157;-20
2022/11/28 02:40:10;;;;;;;;;;;;;;;30.52;22.71;101493.72;4941241;28;1157;-20
2022/11/28 02:42:38;;;;;;;;;;;;;;;29.71;24.00;101487.94;4977526;28;1321;-20
2022/11/28 02:45:03;;;;;;;;;;;;;;;29.88;23.65;101496.75;4960484;28;1106;-20
2022/11/28 02:47:28;;;;;;;;;;;;;;;30.08;23.43;101488.06;4978109;28;936;-20
2022/11/28 02:49:56;;;;;;;;;;;;;;;30.18;23.26;101488.63;4978357;28;1098;-20
2022/11/28 02:52:23;;;;;;;;;;;;;;;30.21;22.97;101490.19;4971282;28;1940;-20
2022/11/28 02:54:48;;;;;;;;;;;;;;;30.41;22.67;101484.19;4976041;28;1906;-20
2022/11/28 02:57:14;;;;;;;;;;;;;;;30.46;22.45;101487.19;4960767;28;1142;-20
2022/11/28 02:59:42;;;;;;;;;;;;;;;29.62;23.54;101489.00;4977472;28;873;-20
2022/11/28 03:02:10;;;;;;;;;;;;;;;29.71;23.60;101496.06;4977987;28;1137;-20
2022/11/28 03:04:55;;;;;;;;;;;;;;;30.22;22.90;101488.31;4977284;28;1407;-20
2022/11/28 03:07:34;;;;;;;;;;;;;;;30.25;22.61;101490.63;4973228;28;1058;-19
2022/11/28 03:10:02;;;;;;;;;;;;;;;30.43;22.39;101491.09;4952415;28;1099;-20
2022/11/28 03:12:31;;;;;;;;;;;;;;;30.36;22.47;101483.91;4959996;28;1190;-20
2022/11/28 03:14:57;;;;;;;;;;;;;;;30.09;22.38;101486.19;4977206;28;1875;-20
2022/11/28 03:17:27;;;;;;;;;;;;;;;29.39;23.25;101479.84;4961015;28;1145;-19
2022/11/28 03:19:57;;;;;;;;;;;;;;;29.87;22.96;101480.66;4977523;28;1126;-20
2022/11/28 03:22:36;;;;;;;;;;;;;;;30.02;22.83;101477.97;4957815;28;1901;-20
2022/11/28 03:25:04;;;;;;;;;;;;;;;30.23;22.56;101476.44;4960189;28;1147;-20
2022/11/28 03:27:31;;;;;;;;;;;;;;;30.39;22.17;101473.53;4977661;28;1227;-20
2022/11/28 03:30:02;;;;;;;;;;;;;;;30.29;22.25;101475.69;4959669;28;1114;-19
2022/11/28 03:32:32;;;;;;;;;;;;;;;29.73;22.58;101476.91;4960058;28;1122;-20
2022/11/28 03:35:08;;;;;;;;;;;;;;;29.06;23.35;101478.19;4976332;28;1969;-20
2022/11/28 03:37:39;;;;;;;;;;;;;;;29.90;22.96;101469.44;4960521;28;1095;-20
2022/11/28 03:40:06;;;;;;;;;;;;;;;30.07;22.49;101467.41;4960379;28;1114;-20
2022/11/28 03:42:32;;;;;;;;;;;;;;;30.26;22.37;101476.06;4959750;28;1150;-20
2022/11/28 03:45:02;;;;;;;;;;;;;;;30.39;22.04;101469.97;4977163;28;1046;-20
2022/11/28 03:47:29;;;;;;;;;;;;;;;30.29;22.16;101464.81;4960239;28;1134;-20
2022/11/28 03:49:55;;;;;;;;;;;;;;;29.75;22.23;101459.41;4959953;28;1130;-20
2022/11/28 03:52:31;;;;;;;;;;;;;;;29.22;23.31;101473.69;4953666;29;1905;-19
2022/11/28 03:55:01;;;;;;;;;;;;;;;29.92;22.51;101465.53;4974634;28;1975;-20
2022/11/28 03:57:34;;;;;;;;;;;;;;;30.05;22.16;101459.44;4959897;28;1126;-20
2022/11/28 03:59:59;;;;;;;;;;;;;;;30.36;22.03;101465.75;4976794;28;1185;-20
2022/11/28 04:02:40;;;;;;;;;;;;;;;30.31;21.95;101468.19;4977137;28;1312;-21
2022/11/28 04:05:20;;;;;;;;;;;;;;;30.35;22.01;101466.78;4975944;28;1118;-20
2022/11/28 04:07:52;;;;;;;;;;;;;;;29.58;22.77;101474.94;4952343;29;1162;-20
2022/11/28 04:10:21;;;;;;;;;;;;;;;29.57;22.94;101474.13;4970931;28;1075;-19
2022/11/28 04:12:50;;;;;;;;;;;;;;;30.04;22.25;101473.19;4959431;28;1106;-20
2022/11/28 04:15:21;;;;;;;;;;;;;;;30.24;22.05;101472.69;4975968;28;1902;-20
2022/11/28 04:17:54;;;;;;;;;;;;;;;30.31;22.03;101474.44;4959081;28;1216;-20
2022/11/28 04:20:30;;;;;;;;;;;;;;;30.36;21.98;101481.19;4960004;28;1158;-20
2022/11/28 04:22:59;;;;;;;;;;;;;;;30.31;21.56;101484.47;4971349;28;1829;-19
2022/11/28 04:25:24;;;;;;;;;;;;;;;29.53;22.59;101480.91;4958466;28;1227;-20
2022/11/28 04:27:52;;;;;;;;;;;;;;;29.73;22.78;101482.31;4976575;28;1188;-20
2022/11/28 04:30:17;;;;;;;;;;;;;;;30.01;22.23;101474.41;4959429;28;1246;-20
2022/11/28 04:32:46;;;;;;;;;;;;;;;30.29;22.15;101470.25;4958820;28;1257;-19
2022/11/28 04:35:13;;;;;;;;;;;;;;;30.32;21.79;101464.44;4974990;28;1968;-19
2022/11/28 04:37:39;;;;;;;;;;;;;;;29.35;21.51;101470.38;4964458;28;975;-18
2022/11/28 04:40:05;;;;;;;;;;;;;;;27.75;19.61;101461.16;4963495;28;1205;-19
2022/11/28 04:42:44;;;;;;;;;;;;;;;26.88;20.37;101456.94;4962540;28;1188;-18
2022/11/28 04:45:09;;;;;;;;;;;;;;;26.60;21.44;101462.56;4980363;28;1090;-18
2022/11/28 04:47:34;;;;;;;;;;;;;;;26.38;21.02;101452.19;4979717;28;846;-19
2022/11/28 04:50:00;;;;;;;;;;;;;;;26.19;21.81;101447.88;4980174;28;1651;-18
2022/11/28 04:52:44;;;;;;;;;;;;;;;25.79;21.96;101453.66;4958602;28;1805;-18
2022/11/28 04:55:25;;;;;;;;;;;;;;;25.63;21.94;101456.22;4978709;28;1961;-18
2022/11/28 04:58:19;;;;;;;;;;;;;;;27.54;21.47;101466.19;4976703;28;1173;-19
2022/11/28 05:00:45;;;;;;;;;;;;;;;28.42;20.83;101468.31;4959773;28;1357;-19
2022/11/28 05:03:10;;;;;;;;;;;;;;;29.02;20.26;101470.59;4962050;28;1159;-19
2022/11/28 05:05:46;;;;;;;;;;;;;;;29.39;20.19;101473.56;4961907;28;1043;-19
2022/11/28 05:08:11;;;;;;;;;;;;;;;29.45;20.62;101470.13;4968082;28;1062;-19
2022/11/28 05:10:36;;;;;;;;;;;;;;;28.71;21.41;101467.69;4976026;28;1119;-19
2022/11/28 05:13:02;;;;;;;;;;;;;;;29.00;21.22;101473.50;4978992;28;1051;-19
2022/11/28 05:15:27;;;;;;;;;;;;;;;29.35;21.01;101475.78;4978649;28;1910;-19
2022/11/28 05:17:52;;;;;;;;;;;;;;;29.54;20.99;101477.19;4977876;28;1197;-20
2022/11/28 05:20:18;;;;;;;;;;;;;;;29.57;20.99;101474.13;4978610;28;1141;-19
2022/11/28 05:22:43;;;;;;;;;;;;;;;29.81;20.85;101474.13;4977058;28;1793;-19
2022/11/28 05:25:08;;;;;;;;;;;;;;;29.61;21.26;101469.22;4978373;28;1115;-19
2022/11/28 05:27:34;;;;;;;;;;;;;;;28.84;22.09;101474.41;4978776;28;1332;-19
2022/11/28 05:29:59;;;;;;;;;;;;;;;29.30;21.70;101479.06;4978675;28;1245;-19
2022/11/28 05:32:24;;;;;;;;;;;;;;;29.16;21.84;101472.53;4979226;28;1190;-19
2022/11/28 05:34:49;;;;;;;;;;;;;;;29.45;21.53;101473.69;4979224;28;1902;-19
2022/11/28 05:37:15;;;;;;;;;;;;;;;29.63;21.56;101475.25;4978312;28;982;-19
2022/11/28 05:39:40;;;;;;;;;;;;;;;29.56;21.71;101466.16;4979038;28;1101;-19
2022/11/28 05:42:05;;;;;;;;;;;;;;;29.79;21.40;101466.16;4979533;28;1196;-19
2022/11/28 05:44:31;;;;;;;;;;;;;;;29.30;21.96;101475.50;4961568;28;1176;-19
2022/11/28 05:46:56;;;;;;;;;;;;;;;28.88;22.33;101481.13;4976147;28;1146;-19
2022/11/28 05:49:22;;;;;;;;;;;;;;;29.41;21.84;101479.66;4978555;28;967;-19
2022/11/28 05:51:48;;;;;;;;;;;;;;;29.59;21.56;101471.25;4978179;28;1221;-19
2022/11/28 05:54:14;;;;;;;;;;;;;;;29.86;21.18;101478.97;4978244;28;1902;-19
2022/11/28 05:56:39;;;;;;;;;;;;;;;30.13;20.99;101471.25;4961365;28;1146;-19
2022/11/28 05:59:04;;;;;;;;;;;;;;;29.96;21.15;101476.00;4977727;28;990;-19
2022/11/28 06:01:29;;;;;;;;;;;;;;;29.54;21.56;101484.47;4978318;28;1112;-20
2022/11/28 06:03:59;;;;;;;;;;;;;;;28.94;22.38;101482.31;4965417;28;1048;-19
2022/11/28 06:06:28;;;;;;;;;;;;;;;29.52;21.71;101470.25;4974702;28;1217;-19
2022/11/28 06:08:54;;;;;;;;;;;;;;;29.75;21.37;101474.81;4975700;28;1166;-19
2022/11/28 06:11:21;;;;;;;;;;;;;;;29.83;21.45;101485.59;4975362;28;1292;-19
2022/11/28 06:13:47;;;;;;;;;;;;;;;29.77;21.45;101483.63;4979770;28;943;-19
2022/11/28 06:16:13;;;;;;;;;;;;;;;29.81;21.38;101484.97;4976927;28;1969;-19
2022/11/28 06:18:38;;;;;;;;;;;;;;;29.61;21.72;101496.31;4978333;28;1110;-19
2022/11/28 06:21:04;;;;;;;;;;;;;;;28.90;22.39;101486.38;4977732;28;1141;-19
2022/11/28 06:23:29;;;;;;;;;;;;;;;29.30;22.18;101487.19;4973782;28;2062;-19
2022/11/28 06:25:54;;;;;;;;;;;;;;;29.92;21.22;101483.66;4977551;28;1114;-19
2022/11/28 06:28:20;;;;;;;;;;;;;;;29.18;21.88;101477.78;4977958;28;1110;-19
2022/11/28 06:30:45;;;;;;;;;;;;;;;28.62;22.52;101476.00;4978034;28;1157;-19
2022/11/28 06:33:10;;;;;;;;;;;;;;;29.00;22.37;101472.63;4974836;28;1206;-19
2022/11/28 06:35:36;;;;;;;;;;;;;;;28.92;22.47;101471.66;4975379;28;1963;-19
2022/11/28 06:38:01;;;;;;;;;;;;;;;29.32;22.07;101473.44;4975057;28;1301;-19
2022/11/28 06:40:26;;;;;;;;;;;;;;;29.56;21.50;101460.75;4977464;28;1012;-19
2022/11/28 06:42:51;;;;;;;;;;;;;;;29.59;21.64;101465.81;4977654;28;987;-19
2022/11/28 06:45:17;;;;;;;;;;;;;;;29.67;21.66;101468.47;4978236;28;1118;-19
2022/11/28 06:47:42;;;;;;;;;;;;;;;29.89;21.31;101457.75;4977970;28;1102;-19
2022/11/28 06:50:08;;;;;;;;;;;;;;;30.13;21.04;101463.13;4977618;28;1086;-19
2022/11/28 06:52:34;;;;;;;;;;;;;;;29.17;21.93;101460.69;4976905;28;1150;-18
2022/11/28 06:54:59;;;;;;;;;;;;;;;29.25;22.10;101470.63;4977637;28;1965;-19
2022/11/28 06:57:25;;;;;;;;;;;;;;;29.83;21.27;101472.03;4978014;28;1106;-18
2022/11/28 06:59:50;;;;;;;;;;;;;;;30.16;20.95;101460.03;4976138;28;1051;-19
2022/11/28 07:02:15;;;;;;;;;;;;;;;30.07;21.01;101470.13;4977545;28;1149;-19
2022/11/28 07:04:40;;;;;;;;;;;;;;;30.16;20.75;101454.59;4976893;28;1465;-19
2022/11/28 07:07:06;;;;;;;;;;;;;;;30.27;20.60;101459.59;4976255;28;1098;-19
2022/11/28 07:09:31;;;;;;;;;;;;;;;29.26;21.73;101455.22;4977501;28;1078;-19
2022/11/28 07:11:56;;;;;;;;;;;;;;;29.38;21.57;101442.91;4977264;28;1090;-19
2022/11/28 07:14:22;;;;;;;;;;;;;;;29.62;21.52;101448.34;4977485;28;1936;-19
2022/11/28 07:16:48;;;;;;;;;;;;;;;29.65;21.46;101445.25;4977726;28;1145;-19
2022/11/28 07:19:13;;;;;;;;;;;;;;;29.95;20.96;101442.59;4977345;28;1070;-19
2022/11/28 07:21:40;;;;;;;;;;;;;;;30.03;20.92;101442.50;4978205;28;1966;-19
2022/11/28 07:24:05;;;;;;;;;;;;;;;30.02;20.81;101446.25;4963431;28;1185;-19
2022/11/28 07:26:30;;;;;;;;;;;;;;;29.26;21.48;101438.97;4977822;28;1137;-19
2022/11/28 07:28:58;;;;;;;;;;;;;;;29.17;21.87;101447.16;4960124;28;1080;-19
2022/11/28 07:31:25;;;;;;;;;;;;;;;29.65;21.48;101443.41;4975902;28;1066;-19
2022/11/28 07:33:50;;;;;;;;;;;;;;;29.92;21.05;101427.53;4977432;28;1106;-20
2022/11/28 07:36:20;;;;;;;;;;;;;;;30.20;20.62;101431.50;4975599;28;1907;-19
2022/11/28 07:38:46;;;;;;;;;;;;;;;30.18;20.65;101442.50;4976751;28;1276;-19
2022/11/28 07:41:11;;;;;;;;;;;;;;;30.16;20.74;101433.72;4976679;28;1178;-19
2022/11/28 07:43:37;;;;;;;;;;;;;;;29.46;21.31;101442.03;4976955;28;1238;-19
2022/11/28 07:46:03;;;;;;;;;;;;;;;29.02;21.94;101436.25;4976663;28;1190;-20
2022/11/28 07:48:28;;;;;;;;;;;;;;;29.66;21.11;101427.97;4976400;28;1225;-19
2022/11/28 07:50:53;;;;;;;;;;;;;;;29.88;21.01;101430.81;4976432;28;1253;-18
2022/11/28 07:53:19;;;;;;;;;;;;;;;30.02;20.84;101427.28;4974607;28;1911;-19
2022/11/28 07:55:44;;;;;;;;;;;;;;;30.12;20.76;101431.56;4976000;28;1956;-19
2022/11/28 07:58:09;;;;;;;;;;;;;;;30.09;20.76;101437.38;4976320;28;1178;-20
2022/11/28 08:00:35;;;;;;;;;;;;;;;29.66;21.11;101436.94;4975979;28;1245;-19
2022/11/28 08:03:00;;;;;;;;;;;;;;;28.92;22.17;101432.88;4976813;28;1403;-19
2022/11/28 08:05:25;;;;;;;;;;;;;;;29.51;21.76;101438.75;4977160;28;1161;-19
2022/11/28 08:07:50;;;;;;;;;;;;;;;29.80;21.14;101435.28;4974855;28;951;-19
2022/11/28 08:10:16;;;;;;;;;;;;;;;29.98;21.04;101434.09;4976236;28;1075;-19
2022/11/28 08:12:41;;;;;;;;;;;;;;;30.21;20.74;101440.50;4973656;28;1185;-19
2022/11/28 08:15:07;;;;;;;;;;;;;;;30.17;20.66;101426.41;4975723;28;1887;-19
2022/11/28 08:17:32;;;;;;;;;;;;;;;30.16;20.94;101431.00;4976792;28;1110;-19
2022/11/28 08:19:57;;;;;;;;;;;;;;;29.42;21.60;101428.00;4975385;28;1291;-19
2022/11/28 08:22:23;;;;;;;;;;;;;;;29.58;21.60;101418.84;4971311;28;2031;-19
2022/11/28 08:24:48;;;;;;;;;;;;;;;29.60;21.27;101407.00;4976185;28;1122;-19
2022/11/28 08:27:13;;;;;;;;;;;;;;;29.78;20.86;101417.53;4974723;28;1090;-19
2022/11/28 08:29:39;;;;;;;;;;;;;;;29.96;20.97;101409.03;4976757;28;1030;-19
2022/11/28 08:32:04;;;;;;;;;;;;;;;29.98;20.85;101416.97;4976280;28;1201;-19
2022/11/28 08:34:29;;;;;;;;;;;;;;;30.09;20.67;101416.50;4976603;28;1961;-19
2022/11/28 08:36:55;;;;;;;;;;;;;;;29.52;21.13;101416.03;4975732;28;1169;-19
2022/11/28 08:39:20;;;;;;;;;;;;;;;29.09;21.77;101414.69;4976813;28;1142;-19
2022/11/28 08:41:45;;;;;;;;;;;;;;;29.81;21.06;101409.03;4976887;28;1121;-19
2022/11/28 08:44:11;;;;;;;;;;;;;;;30.00;20.72;101409.47;4976163;28;1205;-19
2022/11/28 08:46:36;;;;;;;;;;;;;;;30.16;20.66;101406.56;4958621;28;1170;-19
2022/11/28 08:49:01;;;;;;;;;;;;;;;30.34;20.36;101416.25;4974816;28;1213;-19
2022/11/28 08:51:28;;;;;;;;;;;;;;;30.18;20.47;101409.94;4975496;28;1284;-19
2022/11/28 08:53:54;;;;;;;;;;;;;;;29.61;21.00;101404.13;4975349;28;2201;-19
2022/11/28 08:56:19;;;;;;;;;;;;;;;29.20;21.53;101418.84;4975824;28;1906;-19
2022/11/28 08:58:45;;;;;;;;;;;;;;;29.70;21.22;101416.56;4975597;28;1153;-19
2022/11/28 09:01:20;;;;;;;;;;;;;;;29.94;20.82;101408.38;4975238;28;1307;-19
2022/11/28 09:03:46;;;;;;;;;;;;;;;30.01;20.73;101403.88;4958097;28;1292;-19
2022/11/28 09:06:11;;;;;;;;;;;;;;;30.12;20.66;101402.56;4975631;28;1275;-19
2022/11/28 09:08:36;;;;;;;;;;;;;;;30.04;20.68;101399.94;4975423;28;1276;-19
2022/11/28 09:11:02;;;;;;;;;;;;;;;29.76;21.14;101397.88;4976356;28;1288;-19
2022/11/28 09:13:27;;;;;;;;;;;;;;;28.97;21.88;101408.84;4974752;28;1581;-19
2022/11/28 09:15:53;;;;;;;;;;;;;;;29.45;21.48;101419.47;4975411;28;1942;-19
2022/11/28 09:18:19;;;;;;;;;;;;;;;29.63;21.15;101417.50;4975691;28;1145;-19
2022/11/28 09:20:44;;;;;;;;;;;;;;;29.90;20.94;101413.31;4975337;28;1304;-19
2022/11/28 09:23:09;;;;;;;;;;;;;;;30.21;20.58;101407.94;4975401;28;1920;-19
2022/11/28 09:25:35;;;;;;;;;;;;;;;29.99;20.96;101405.94;4975282;28;1280;-19
2022/11/28 09:28:00;;;;;;;;;;;;;;;30.01;20.68;101406.56;4977019;28;1348;-19
2022/11/28 09:30:26;;;;;;;;;;;;;;;29.31;21.56;101402.16;4978442;28;1284;-20
2022/11/28 09:32:51;;;;;;;;;;;;;;;29.48;21.46;101390.34;4978905;28;1316;-20
2022/11/28 09:35:16;;;;;;;;;;;;;;;30.06;20.77;101387.06;4978715;28;1918;-19
2022/11/28 09:37:42;;;;;;;;;;;;;;;30.21;20.65;101384.34;4978759;28;1351;-19
2022/11/28 09:40:29;;;;;;;;;;;;;;;30.26;20.40;101378.34;4978528;28;1369;-19
2022/11/28 09:42:54;;;;;;;;;;;;;;;30.04;20.88;101370.13;4960200;28;1261;-19
2022/11/28 09:45:20;;;;;;;;;;;;;;;30.18;20.80;101355.69;4961694;28;1292;-19
2022/11/28 09:47:47;;;;;;;;;;;;;;;29.35;21.56;101345.72;4961918;28;1317;-19
2022/11/28 09:50:20;;;;;;;;;;;;;;;29.33;21.66;101328.78;4978620;28;1214;-19
2022/11/28 09:52:52;;;;;;;;;;;;;;;29.55;21.38;101348.75;4962068;28;1867;-19
2022/11/28 09:55:23;;;;;;;;;;;;;;;29.69;21.38;101338.13;4960828;28;1961;-19
2022/11/28 09:57:49;;;;;;;;;;;;;;;30.11;21.11;101338.50;4978778;28;1193;-19
2022/11/28 10:00:16;;;;;;;;;;;;;;;30.05;21.22;101337.38;4961271;28;1197;-19
2022/11/28 10:02:59;;;;;;;;;;;;;;;29.97;21.23;101334.75;4978858;28;1157;-19
2022/11/28 10:05:28;;;;;;;;;;;;;;;29.40;21.82;101326.19;4978306;28;1106;-19
2022/11/28 10:08:11;;;;;;;;;;;;;;;29.52;21.87;101326.59;4952784;29;992;-19
2022/11/28 10:10:40;;;;;;;;;;;;;;;29.90;21.39;101307.53;4959080;28;1182;-19
2022/11/28 10:13:05;;;;;;;;;;;;;;;30.17;21.36;101307.03;4978527;28;1149;-19
2022/11/28 10:15:30;;;;;;;;;;;;;;;30.28;21.07;101314.72;4978473;28;1961;-19
2022/11/28 10:17:56;;;;;;;;;;;;;;;30.26;20.97;101305.91;4978640;28;1086;-19
2022/11/28 10:20:29;;;;;;;;;;;;;;;29.99;21.01;101308.28;4977714;28;1189;-19
2022/11/28 10:22:56;;;;;;;;;;;;;;;29.26;21.87;101293.47;4950217;28;1818;-19
2022/11/28 10:25:21;;;;;;;;;;;;;;;29.62;21.72;101294.66;4978590;28;1093;-19
2022/11/28 10:27:47;;;;;;;;;;;;;;;29.78;21.42;101299.03;4978306;28;1095;-19
2022/11/28 10:30:17;;;;;;;;;;;;;;;30.22;20.88;101311.91;4960841;28;1094;-19
2022/11/28 10:32:43;;;;;;;;;;;;;;;30.29;20.88;101302.00;4978367;28;1615;-19
2022/11/28 10:35:23;;;;;;;;;;;;;;;30.22;20.99;101288.34;4960449;28;1988;-19
2022/11/28 10:37:49;;;;;;;;;;;;;;;29.67;21.19;101289.53;4977956;28;1109;-19
2022/11/28 10:40:20;;;;;;;;;;;;;;;29.21;22.06;101282.38;4960759;28;1007;-19
2022/11/28 10:42:45;;;;;;;;;;;;;;;29.89;21.37;101281.47;4977792;28;1200;-19
2022/11/28 10:45:11;;;;;;;;;;;;;;;30.15;20.82;101287.38;4978383;28;1122;-20
2022/11/28 10:47:52;;;;;;;;;;;;;;;30.33;20.70;101289.69;4977671;28;1154;-19
2022/11/28 10:50:17;;;;;;;;;;;;;;;30.39;20.65;101288.97;4977380;28;1118;-19
2022/11/28 10:53:00;;;;;;;;;;;;;;;30.45;20.31;101300.06;4976986;28;1916;-19
2022/11/28 10:55:37;;;;;;;;;;;;;;;29.31;20.30;101285.63;4977957;28;1957;-18
2022/11/28 10:58:03;;;;;;;;;;;;;;;29.25;21.51;101290.94;4977380;28;1169;-19
2022/11/28 11:00:28;;;;;;;;;;;;;;;29.61;21.23;101276.72;4977901;28;1193;-19
2022/11/28 11:02:54;;;;;;;;;;;;;;;29.82;20.98;101288.66;4977417;28;1291;-19
2022/11/28 11:05:20;;;;;;;;;;;;;;;30.11;20.65;101281.53;4975779;28;1090;-18
2022/11/28 11:07:52;;;;;;;;;;;;;;;30.27;20.63;101285.06;4975316;28;1062;-19
2022/11/28 11:10:21;;;;;;;;;;;;;;;30.37;20.41;101263.88;4975896;28;1039;-19
2022/11/28 11:12:47;;;;;;;;;;;;;;;29.40;21.39;101262.00;4976500;28;1244;-18
2022/11/28 11:15:17;;;;;;;;;;;;;;;29.01;21.82;101258.47;4959136;28;1898;-18
2022/11/28 11:17:42;;;;;;;;;;;;;;;29.69;21.13;101270.34;4976459;28;1280;-18
2022/11/28 11:20:26;;;;;;;;;;;;;;;29.89;21.04;101270.63;4976081;28;1221;-18
2022/11/28 11:22:55;;;;;;;;;;;;;;;30.28;20.52;101265.03;4975914;28;1801;-19
2022/11/28 11:25:21;;;;;;;;;;;;;;;30.34;20.29;101266.97;4977365;28;1258;-19
2022/11/28 11:27:50;;;;;;;;;;;;;;;30.47;20.34;101268.97;4959242;28;1281;-19
2022/11/28 11:30:24;;;;;;;;;;;;;;;29.29;21.24;101255.19;4959428;28;1177;-18
2022/11/28 11:32:50;;;;;;;;;;;;;;;29.32;21.72;101253.97;4976724;28;1194;-19
2022/11/28 11:35:25;;;;;;;;;;;;;;;29.68;21.30;101257.81;4976055;28;1982;-19
2022/11/28 11:37:51;;;;;;;;;;;;;;;29.87;21.08;101256.41;4959316;28;1217;-19
2022/11/28 11:40:19;;;;;;;;;;;;;;;30.07;21.14;101266.66;4976647;28;1388;-19
2022/11/28 11:42:57;;;;;;;;;;;;;;;30.15;20.87;101271.09;4976513;28;1229;-18
2022/11/28 11:45:24;;;;;;;;;;;;;;;30.28;20.46;101276.72;4976500;28;1138;-18
2022/11/28 11:47:49;;;;;;;;;;;;;;;29.40;21.67;101266.56;4976696;28;1150;-19
2022/11/28 11:50:16;;;;;;;;;;;;;;;29.58;21.56;101268.91;4975058;28;1221;-19
2022/11/28 11:52:41;;;;;;;;;;;;;;;29.98;21.31;101265.09;4976335;28;1841;-19
2022/11/28 11:55:10;;;;;;;;;;;;;;;30.18;21.17;101266.13;4976349;28;1902;-19
2022/11/28 11:57:39;;;;;;;;;;;;;;;30.29;21.06;101256.69;4976521;28;1249;-19
2022/11/28 12:00:14;;;;;;;;;;;;;;;29.88;20.99;101249.13;4976769;28;1218;-19
2022/11/28 12:02:42;;;;;;;;;;;;;;;29.36;21.60;101243.59;4976290;28;1565;-19
2022/11/28 12:05:20;;;;;;;;;;;;;;;29.72;21.83;101247.44;4976243;28;1226;-19
2022/11/28 12:07:57;;;;;;;;;;;;;;;29.75;21.57;101247.06;4958377;28;1202;-19
2022/11/28 12:10:24;;;;;;;;;;;;;;;29.88;21.71;101244.50;4959108;28;1215;-18
2022/11/28 12:12:49;;;;;;;;;;;;;;;30.13;21.38;101240.63;4956355;28;1139;-19
2022/11/28 12:15:16;;;;;;;;;;;;;;;29.91;20.87;101243.31;4975719;28;1961;-19
2022/11/28 12:17:53;;;;;;;;;;;;;;;29.42;21.71;101242.84;4958966;28;1248;-18
2022/11/28 12:20:30;;;;;;;;;;;;;;;29.92;21.48;101250.41;4958210;28;1371;-19
2022/11/28 12:23:14;;;;;;;;;;;;;;;30.18;20.99;101255.28;4958698;28;1765;-18
2022/11/28 12:25:46;;;;;;;;;;;;;;;30.44;20.64;101255.78;4975803;28;1209;-18
2022/11/28 12:28:14;;;;;;;;;;;;;;;30.30;20.86;101260.25;4976202;28;1242;-19
2022/11/28 12:30:45;;;;;;;;;;;;;;;30.27;20.98;101258.75;4975905;28;1165;-19
2022/11/28 12:33:15;;;;;;;;;;;;;;;29.54;21.51;101248.63;4976486;28;1114;-19
2022/11/28 12:35:41;;;;;;;;;;;;;;;29.63;21.68;101262.97;4959087;28;1967;-19
2022/11/28 12:38:15;;;;;;;;;;;;;;;29.80;21.44;101263.59;4976636;28;1184;-19
2022/11/28 12:40:43;;;;;;;;;;;;;;;30.06;21.07;101262.25;4975700;28;1130;-18
2022/11/28 12:43:27;;;;;;;;;;;;;;;30.36;20.84;101270.34;4976445;28;1149;-19
2022/11/28 12:46:13;;;;;;;;;;;;;;;30.30;20.86;101255.66;4976334;28;1078;-19
2022/11/28 12:48:38;;;;;;;;;;;;;;;29.62;21.39;101267.56;4972668;28;1130;-19
2022/11/28 12:51:13;;;;;;;;;;;;;;;29.52;21.79;101265.09;4974558;28;1114;-20